Date,TemperatureHighF,TemperatureAvgF,TemperatureLowF,DewpointHighF,DewpointAvgF,DewpointLowF,HumidityHigh,HumidityAvg,HumidityLow,PressureMaxIn,PressureMinIn,WindSpeedMaxMPH,WindSpeedAvgMPH,GustSpeedMaxMPH,PrecipitationSumIn
2013-10-1,78,67,60,68,64,59,98,91,69,29.92,29.79,5,1,0,0.02
2013-10-2,77,67,54,70,65,54,98,92,74,29.98,29.81,5,1,0,0.00
2013-10-3,73,61,47,60,54,46,98,81,48,30.04,29.90,3,0,0,0.02
2013-10-4,75,67,60,74,66,59,98,98,98,29.95,29.88,2,0,0,2.10
2013-10-5,69,62,60,68,62,59,98,98,98,30.00,29.89,5,1,0,0.89
2013-10-6,83,69,60,76,67,59,98,94,76,29.89,29.56,5,1,0,0.76
2013-10-7,75,60,48,69,57,48,98,91,76,29.96,29.54,7,2,0,0.80
2013-10-8,67,53,43,56,49,42,98,86,60,30.25,29.97,4,0,0,0.00
2013-10-9,72,55,40,54,48,40,98,82,48,30.30,30.16,5,0,0,0.00
2013-10-10,74,54,41,54,47,41,98,80,43,30.18,30.03,4,0,0,0.00
2013-10-11,74,56,43,60,50,43,98,84,48,30.07,29.98,6,1,0,0.00
2013-10-12,80,59,42,62,50,41,98,77,37,30.10,29.98,5,0,0,0.00
2013-10-13,71,62,53,65,58,46,98,90,76,30.17,30.04,5,1,0,0.45
2013-10-14,67,56,45,59,53,44,98,88,61,30.26,30.16,4,1,0,0.14
2013-10-15,71,56,44,62,53,43,98,90,70,30.20,29.83,4,0,0,0.00
2013-10-16,71,63,53,66,61,53,98,92,77,29.82,29.63,7,2,0,0.56
2013-10-17,64,56,51,57,53,51,98,92,73,29.79,29.59,4,1,0,0.56
2013-10-18,63,54,46,53,49,46,98,85,58,29.79,29.62,6,2,0,0.05
2013-10-19,60,52,42,55,50,42,98,92,71,29.78,29.54,5,1,0,0.39
2013-10-20,58,47,39,51,44,39,98,89,68,29.86,29.68,4,1,0,0.00
2013-10-21,68,55,43,53,47,43,98,78,50,29.86,29.68,7,2,0,0.19
2013-10-22,51,46,39,50,38,33,98,75,58,29.74,29.65,7,2,0,0.38
2013-10-23,50,41,35,44,38,32,98,88,72,29.72,29.59,3,1,0,0.07
2013-10-24,51,40,32,39,36,31,98,86,60,29.93,29.70,7,2,0,0.00
2013-10-25,53,42,34,43,36,29,95,79,62,30.09,29.93,4,1,0,0.00
2013-10-26,46,43,40,41,38,35,92,84,70,30.01,29.65,17,3,0,0.60
2013-10-27,50,42,36,43,37,31,92,82,65,29.95,29.71,5,1,0,0.00
2013-10-28,50,42,28,43,35,24,90,76,48,30.31,29.93,7,1,0,0.00
2013-10-29,53,40,27,37,32,24,92,76,50,30.37,30.20,3,1,0,0.00
2013-10-30,62,47,36,46,40,32,91,79,55,30.19,29.97,3,0,0,0.00
2013-10-31,68,56,40,64,51,36,92,81,54,29.96,29.22,8,2,0,1.15